sensor_id;sensor_type;location;lat;lon;timestamp;P1;durP1;ratioP1;P2;durP2;ratioP2
40967;SDS011;57377;45.130;6.038;2022-07-11T00:02:10;7.07;;;2.92;;
40967;SDS011;57377;45.130;6.038;2022-07-11T00:04:36;3.25;;;2.60;;
40967;SDS011;57377;45.130;6.038;2022-07-11T00:07:03;6.78;;;2.75;;
40967;SDS011;57377;45.130;6.038;2022-07-11T00:09:29;3.05;;;2.67;;
40967;SDS011;57377;45.130;6.038;2022-07-11T00:11:54;3.55;;;2.55;;
40967;SDS011;57377;45.130;6.038;2022-07-11T00:14:20;9.38;;;3.03;;
40967;SDS011;57377;45.130;6.038;2022-07-11T00:16:46;8.80;;;3.50;;
40967;SDS011;57377;45.130;6.038;2022-07-11T00:19:12;6.10;;;3.28;;
40967;SDS011;57377;45.130;6.038;2022-07-11T00:21:38;6.78;;;2.67;;
40967;SDS011;57377;45.130;6.038;2022-07-11T00:24:03;5.53;;;2.58;;
40967;SDS011;57377;45.130;6.038;2022-07-11T00:26:29;6.00;;;3.08;;
40967;SDS011;57377;45.130;6.038;2022-07-11T00:28:55;5.88;;;3.30;;
40967;SDS011;57377;45.130;6.038;2022-07-11T00:31:20;5.28;;;2.80;;
40967;SDS011;57377;45.130;6.038;2022-07-11T00:33:46;3.95;;;2.80;;
40967;SDS011;57377;45.130;6.038;2022-07-11T00:36:11;4.47;;;3.25;;
40967;SDS011;57377;45.130;6.038;2022-07-11T00:38:36;3.33;;;2.58;;
40967;SDS011;57377;45.130;6.038;2022-07-11T00:41:02;9.50;;;3.08;;
40967;SDS011;57377;45.130;6.038;2022-07-11T00:43:37;5.28;;;3.03;;
40967;SDS011;57377;45.130;6.038;2022-07-11T00:46:04;5.05;;;3.03;;
40967;SDS011;57377;45.130;6.038;2022-07-11T00:48:33;3.15;;;2.63;;
40967;SDS011;57377;45.130;6.038;2022-07-11T00:51:03;3.75;;;2.95;;
40967;SDS011;57377;45.130;6.038;2022-07-11T00:53:30;4.68;;;2.85;;
40967;SDS011;57377;45.130;6.038;2022-07-11T00:55:56;7.00;;;2.65;;
40967;SDS011;57377;45.130;6.038;2022-07-11T00:58:23;3.47;;;2.50;;
40967;SDS011;57377;45.130;6.038;2022-07-11T01:00:48;7.07;;;3.10;;
40967;SDS011;57377;45.130;6.038;2022-07-11T01:03:14;4.03;;;2.58;;
40967;SDS011;57377;45.130;6.038;2022-07-11T01:05:40;7.32;;;3.00;;
40967;SDS011;57377;45.130;6.038;2022-07-11T01:08:05;7.88;;;3.08;;
40967;SDS011;57377;45.130;6.038;2022-07-11T01:10:31;5.22;;;3.58;;
40967;SDS011;57377;45.130;6.038;2022-07-11T01:12:57;4.63;;;3.33;;
40967;SDS011;57377;45.130;6.038;2022-07-11T01:15:23;5.90;;;3.08;;
40967;SDS011;57377;45.130;6.038;2022-07-11T01:17:49;9.07;;;2.93;;
40967;SDS011;57377;45.130;6.038;2022-07-11T01:20:17;4.70;;;2.78;;
40967;SDS011;57377;45.130;6.038;2022-07-11T01:22:44;4.13;;;3.17;;
40967;SDS011;57377;45.130;6.038;2022-07-11T01:25:14;4.30;;;3.00;;
40967;SDS011;57377;45.130;6.038;2022-07-11T01:27:55;4.25;;;2.88;;
40967;SDS011;57377;45.130;6.038;2022-07-11T01:30:21;11.20;;;3.45;;
40967;SDS011;57377;45.130;6.038;2022-07-11T01:32:47;5.13;;;3.25;;
40967;SDS011;57377;45.130;6.038;2022-07-11T01:35:12;9.48;;;3.53;;
40967;SDS011;57377;45.130;6.038;2022-07-11T01:37:38;8.10;;;3.53;;
40967;SDS011;57377;45.130;6.038;2022-07-11T01:40:03;6.07;;;3.22;;
40967;SDS011;57377;45.130;6.038;2022-07-11T01:42:29;5.65;;;2.88;;
40967;SDS011;57377;45.130;6.038;2022-07-11T01:44:54;5.10;;;2.85;;
40967;SDS011;57377;45.130;6.038;2022-07-11T01:47:20;5.55;;;2.60;;
40967;SDS011;57377;45.130;6.038;2022-07-11T01:49:45;6.07;;;3.42;;
40967;SDS011;57377;45.130;6.038;2022-07-11T01:52:10;6.00;;;3.50;;
40967;SDS011;57377;45.130;6.038;2022-07-11T01:54:36;5.60;;;3.33;;
40967;SDS011;57377;45.130;6.038;2022-07-11T01:57:01;3.55;;;2.80;;
40967;SDS011;57377;45.130;6.038;2022-07-11T01:59:27;5.03;;;2.88;;
40967;SDS011;57377;45.130;6.038;2022-07-11T02:01:52;4.65;;;3.15;;
40967;SDS011;57377;45.130;6.038;2022-07-11T02:04:18;6.05;;;2.95;;
40967;SDS011;57377;45.130;6.038;2022-07-11T02:06:43;5.25;;;3.05;;
40967;SDS011;57377;45.130;6.038;2022-07-11T02:09:08;3.80;;;2.88;;
40967;SDS011;57377;45.130;6.038;2022-07-11T02:11:34;4.45;;;3.53;;
40967;SDS011;57377;45.130;6.038;2022-07-11T02:13:59;4.18;;;2.88;;
40967;SDS011;57377;45.130;6.038;2022-07-11T02:16:25;5.00;;;2.97;;
40967;SDS011;57377;45.130;6.038;2022-07-11T02:18:50;5.07;;;2.90;;
40967;SDS011;57377;45.130;6.038;2022-07-11T02:21:16;5.47;;;3.08;;
40967;SDS011;57377;45.130;6.038;2022-07-11T02:23:41;5.95;;;2.80;;
40967;SDS011;57377;45.130;6.038;2022-07-11T02:26:06;5.82;;;3.17;;
40967;SDS011;57377;45.130;6.038;2022-07-11T02:28:32;6.45;;;2.70;;
40967;SDS011;57377;45.130;6.038;2022-07-11T02:30:59;4.43;;;3.20;;
40967;SDS011;57377;45.130;6.038;2022-07-11T02:33:24;7.50;;;3.10;;
40967;SDS011;57377;45.130;6.038;2022-07-11T02:35:50;7.10;;;3.17;;
40967;SDS011;57377;45.130;6.038;2022-07-11T02:38:15;5.00;;;3.05;;
40967;SDS011;57377;45.130;6.038;2022-07-11T02:40:41;4.22;;;2.90;;
40967;SDS011;57377;45.130;6.038;2022-07-11T02:43:06;5.55;;;2.90;;
40967;SDS011;57377;45.130;6.038;2022-07-11T02:45:32;7.25;;;3.70;;
40967;SDS011;57377;45.130;6.038;2022-07-11T02:47:58;3.38;;;2.85;;
40967;SDS011;57377;45.130;6.038;2022-07-11T02:50:23;3.95;;;3.00;;
40967;SDS011;57377;45.130;6.038;2022-07-11T02:52:49;4.68;;;3.17;;
40967;SDS011;57377;45.130;6.038;2022-07-11T02:55:14;4.88;;;3.17;;
40967;SDS011;57377;45.130;6.038;2022-07-11T02:57:40;10.13;;;3.53;;
40967;SDS011;57377;45.130;6.038;2022-07-11T03:00:06;5.28;;;3.38;;
40967;SDS011;57377;45.130;6.038;2022-07-11T03:02:34;9.35;;;3.47;;
40967;SDS011;57377;45.130;6.038;2022-07-11T03:04:59;5.50;;;3.13;;
40967;SDS011;57377;45.130;6.038;2022-07-11T03:07:28;4.88;;;2.75;;
40967;SDS011;57377;45.130;6.038;2022-07-11T03:09:54;5.47;;;3.22;;
40967;SDS011;57377;45.130;6.038;2022-07-11T03:12:20;5.37;;;3.57;;
40967;SDS011;57377;45.130;6.038;2022-07-11T03:14:46;7.40;;;2.88;;
40967;SDS011;57377;45.130;6.038;2022-07-11T03:17:11;3.92;;;3.28;;
40967;SDS011;57377;45.130;6.038;2022-07-11T03:19:37;5.22;;;3.10;;
40967;SDS011;57377;45.130;6.038;2022-07-11T03:22:02;5.53;;;3.20;;
40967;SDS011;57377;45.130;6.038;2022-07-11T03:24:29;4.27;;;3.37;;
40967;SDS011;57377;45.130;6.038;2022-07-11T03:26:54;5.00;;;3.22;;
40967;SDS011;57377;45.130;6.038;2022-07-11T03:29:19;3.78;;;2.78;;
40967;SDS011;57377;45.130;6.038;2022-07-11T03:31:45;4.97;;;3.28;;
40967;SDS011;57377;45.130;6.038;2022-07-11T03:34:10;4.80;;;3.33;;
40967;SDS011;57377;45.130;6.038;2022-07-11T03:36:36;5.40;;;2.92;;
40967;SDS011;57377;45.130;6.038;2022-07-11T03:39:01;3.50;;;2.97;;
40967;SDS011;57377;45.130;6.038;2022-07-11T03:41:26;11.82;;;3.88;;
40967;SDS011;57377;45.130;6.038;2022-07-11T03:43:52;6.40;;;3.33;;
40967;SDS011;57377;45.130;6.038;2022-07-11T03:46:17;7.25;;;3.30;;
40967;SDS011;57377;45.130;6.038;2022-07-11T03:48:43;4.10;;;3.08;;
40967;SDS011;57377;45.130;6.038;2022-07-11T03:51:09;4.07;;;2.95;;
40967;SDS011;57377;45.130;6.038;2022-07-11T03:53:34;3.92;;;2.90;;
40967;SDS011;57377;45.130;6.038;2022-07-11T03:56:00;6.22;;;3.40;;
40967;SDS011;57377;45.130;6.038;2022-07-11T03:58:25;4.07;;;3.25;;
40967;SDS011;57377;45.130;6.038;2022-07-11T04:00:51;5.63;;;3.28;;
40967;SDS011;57377;45.130;6.038;2022-07-11T04:03:16;5.40;;;3.38;;
40967;SDS011;57377;45.130;6.038;2022-07-11T04:05:41;4.15;;;3.33;;
40967;SDS011;57377;45.130;6.038;2022-07-11T04:08:07;5.35;;;3.20;;
40967;SDS011;57377;45.130;6.038;2022-07-11T04:10:33;9.13;;;3.60;;
40967;SDS011;57377;45.130;6.038;2022-07-11T04:12:58;7.07;;;3.28;;
40967;SDS011;57377;45.130;6.038;2022-07-11T04:15:23;3.22;;;2.80;;
40967;SDS011;57377;45.130;6.038;2022-07-11T04:17:49;5.07;;;3.15;;
40967;SDS011;57377;45.130;6.038;2022-07-11T04:20:14;6.25;;;3.22;;
40967;SDS011;57377;45.130;6.038;2022-07-11T04:22:39;4.47;;;2.92;;
40967;SDS011;57377;45.130;6.038;2022-07-11T04:25:05;10.25;;;3.78;;
40967;SDS011;57377;45.130;6.038;2022-07-11T04:27:30;3.90;;;3.20;;
40967;SDS011;57377;45.130;6.038;2022-07-11T04:29:56;5.63;;;3.28;;
40967;SDS011;57377;45.130;6.038;2022-07-11T04:32:21;6.70;;;3.70;;
40967;SDS011;57377;45.130;6.038;2022-07-11T04:34:46;4.07;;;3.08;;
40967;SDS011;57377;45.130;6.038;2022-07-11T04:37:12;4.35;;;3.10;;
40967;SDS011;57377;45.130;6.038;2022-07-11T04:39:38;5.93;;;3.38;;
40967;SDS011;57377;45.130;6.038;2022-07-11T04:42:03;7.28;;;3.63;;
40967;SDS011;57377;45.130;6.038;2022-07-11T04:44:31;6.43;;;2.97;;
40967;SDS011;57377;45.130;6.038;2022-07-11T04:46:57;7.25;;;3.42;;
40967;SDS011;57377;45.130;6.038;2022-07-11T04:49:22;5.32;;;3.33;;
40967;SDS011;57377;45.130;6.038;2022-07-11T04:51:48;4.28;;;3.25;;
40967;SDS011;57377;45.130;6.038;2022-07-11T04:54:13;4.43;;;3.05;;
40967;SDS011;57377;45.130;6.038;2022-07-11T04:56:39;3.30;;;2.90;;
40967;SDS011;57377;45.130;6.038;2022-07-11T04:59:04;5.93;;;3.20;;
40967;SDS011;57377;45.130;6.038;2022-07-11T05:01:29;6.60;;;3.53;;
40967;SDS011;57377;45.130;6.038;2022-07-11T05:03:55;6.43;;;3.17;;
40967;SDS011;57377;45.130;6.038;2022-07-11T05:06:21;5.50;;;3.42;;
40967;SDS011;57377;45.130;6.038;2022-07-11T05:08:47;5.38;;;3.20;;
40967;SDS011;57377;45.130;6.038;2022-07-11T05:11:12;7.50;;;2.97;;
40967;SDS011;57377;45.130;6.038;2022-07-11T05:13:37;6.30;;;3.65;;
40967;SDS011;57377;45.130;6.038;2022-07-11T05:16:03;5.15;;;3.25;;
40967;SDS011;57377;45.130;6.038;2022-07-11T05:18:28;6.53;;;3.28;;
40967;SDS011;57377;45.130;6.038;2022-07-11T05:20:54;6.70;;;3.17;;
40967;SDS011;57377;45.130;6.038;2022-07-11T05:23:19;5.07;;;3.55;;
40967;SDS011;57377;45.130;6.038;2022-07-11T05:25:45;6.93;;;3.30;;
40967;SDS011;57377;45.130;6.038;2022-07-11T05:28:10;6.65;;;3.22;;
40967;SDS011;57377;45.130;6.038;2022-07-11T05:30:35;11.77;;;3.83;;
40967;SDS011;57377;45.130;6.038;2022-07-11T05:33:01;6.22;;;3.42;;
40967;SDS011;57377;45.130;6.038;2022-07-11T05:35:26;6.85;;;3.50;;
40967;SDS011;57377;45.130;6.038;2022-07-11T05:37:52;7.88;;;3.58;;
40967;SDS011;57377;45.130;6.038;2022-07-11T05:40:17;6.43;;;3.50;;
40967;SDS011;57377;45.130;6.038;2022-07-11T05:42:43;4.88;;;3.60;;
40967;SDS011;57377;45.130;6.038;2022-07-11T05:45:08;6.03;;;3.30;;
40967;SDS011;57377;45.130;6.038;2022-07-11T05:47:34;8.40;;;3.83;;
40967;SDS011;57377;45.130;6.038;2022-07-11T05:50:00;5.65;;;3.35;;
40967;SDS011;57377;45.130;6.038;2022-07-11T05:52:25;5.60;;;3.38;;
40967;SDS011;57377;45.130;6.038;2022-07-11T05:54:51;5.25;;;3.15;;
40967;SDS011;57377;45.130;6.038;2022-07-11T05:57:16;11.35;;;3.60;;
40967;SDS011;57377;45.130;6.038;2022-07-11T05:59:42;5.57;;;3.20;;
40967;SDS011;57377;45.130;6.038;2022-07-11T06:02:07;6.22;;;3.10;;
40967;SDS011;57377;45.130;6.038;2022-07-11T06:04:33;5.25;;;2.70;;
40967;SDS011;57377;45.130;6.038;2022-07-11T06:06:59;7.13;;;3.05;;
40967;SDS011;57377;45.130;6.038;2022-07-11T06:09:24;9.15;;;2.83;;
40967;SDS011;57377;45.130;6.038;2022-07-11T06:11:50;7.35;;;3.17;;
40967;SDS011;57377;45.130;6.038;2022-07-11T06:14:15;6.75;;;2.83;;
40967;SDS011;57377;45.130;6.038;2022-07-11T06:16:41;5.10;;;3.33;;
40967;SDS011;57377;45.130;6.038;2022-07-11T06:19:06;8.75;;;3.38;;
40967;SDS011;57377;45.130;6.038;2022-07-11T06:21:32;11.30;;;4.75;;
40967;SDS011;57377;45.130;6.038;2022-07-11T06:23:58;7.53;;;3.15;;
40967;SDS011;57377;45.130;6.038;2022-07-11T06:26:24;7.97;;;2.88;;
40967;SDS011;57377;45.130;6.038;2022-07-11T06:28:49;11.23;;;2.75;;
40967;SDS011;57377;45.130;6.038;2022-07-11T06:31:15;6.13;;;2.42;;
40967;SDS011;57377;45.130;6.038;2022-07-11T06:33:41;2.60;;;2.20;;
40967;SDS011;57377;45.130;6.038;2022-07-11T06:36:07;4.30;;;2.55;;
40967;SDS011;57377;45.130;6.038;2022-07-11T06:38:33;4.95;;;2.55;;
40967;SDS011;57377;45.130;6.038;2022-07-11T06:40:59;5.50;;;2.57;;
40967;SDS011;57377;45.130;6.038;2022-07-11T06:43:25;3.40;;;2.05;;
40967;SDS011;57377;45.130;6.038;2022-07-11T06:45:51;2.47;;;2.03;;
40967;SDS011;57377;45.130;6.038;2022-07-11T06:48:16;5.30;;;1.90;;
40967;SDS011;57377;45.130;6.038;2022-07-11T06:50:42;3.50;;;2.30;;
40967;SDS011;57377;45.130;6.038;2022-07-11T06:53:08;4.97;;;2.33;;
40967;SDS011;57377;45.130;6.038;2022-07-11T06:55:33;4.53;;;2.60;;
40967;SDS011;57377;45.130;6.038;2022-07-11T06:57:59;5.27;;;2.60;;
40967;SDS011;57377;45.130;6.038;2022-07-11T07:00:25;3.72;;;2.40;;
40967;SDS011;57377;45.130;6.038;2022-07-11T07:02:53;3.47;;;2.33;;
40967;SDS011;57377;45.130;6.038;2022-07-11T07:05:20;5.32;;;2.72;;
40967;SDS011;57377;45.130;6.038;2022-07-11T07:07:45;4.95;;;2.22;;
40967;SDS011;57377;45.130;6.038;2022-07-11T07:10:10;3.88;;;2.15;;
40967;SDS011;57377;45.130;6.038;2022-07-11T07:12:39;4.10;;;2.50;;
40967;SDS011;57377;45.130;6.038;2022-07-11T07:15:04;3.88;;;2.38;;
40967;SDS011;57377;45.130;6.038;2022-07-11T07:17:31;3.57;;;2.77;;
40967;SDS011;57377;45.130;6.038;2022-07-11T07:19:56;4.50;;;2.92;;
40967;SDS011;57377;45.130;6.038;2022-07-11T07:22:22;4.95;;;2.47;;
40967;SDS011;57377;45.130;6.038;2022-07-11T07:24:47;9.73;;;3.00;;
40967;SDS011;57377;45.130;6.038;2022-07-11T07:27:13;5.03;;;2.72;;
40967;SDS011;57377;45.130;6.038;2022-07-11T07:29:39;4.78;;;2.60;;
40967;SDS011;57377;45.130;6.038;2022-07-11T07:32:04;4.60;;;2.50;;
40967;SDS011;57377;45.130;6.038;2022-07-11T07:34:30;4.13;;;2.72;;
40967;SDS011;57377;45.130;6.038;2022-07-11T07:36:57;2.90;;;2.40;;
40967;SDS011;57377;45.130;6.038;2022-07-11T07:39:23;8.52;;;2.50;;
40967;SDS011;57377;45.130;6.038;2022-07-11T07:41:48;7.05;;;2.45;;
40967;SDS011;57377;45.130;6.038;2022-07-11T07:44:13;5.25;;;2.67;;
40967;SDS011;57377;45.130;6.038;2022-07-11T07:46:39;3.03;;;2.40;;
40967;SDS011;57377;45.130;6.038;2022-07-11T07:49:04;5.55;;;3.08;;
40967;SDS011;57377;45.130;6.038;2022-07-11T07:51:29;4.68;;;2.88;;
40967;SDS011;57377;45.130;6.038;2022-07-11T07:53:55;2.75;;;2.40;;
40967;SDS011;57377;45.130;6.038;2022-07-11T07:56:21;4.78;;;2.60;;
40967;SDS011;57377;45.130;6.038;2022-07-11T07:58:46;9.63;;;3.00;;
40967;SDS011;57377;45.130;6.038;2022-07-11T08:01:12;4.47;;;3.10;;
40967;SDS011;57377;45.130;6.038;2022-07-11T08:03:55;5.20;;;2.83;;
40967;SDS011;57377;45.130;6.038;2022-07-11T08:06:21;4.18;;;2.85;;
40967;SDS011;57377;45.130;6.038;2022-07-11T08:08:47;5.97;;;2.78;;
40967;SDS011;57377;45.130;6.038;2022-07-11T08:11:12;6.40;;;2.58;;
40967;SDS011;57377;45.130;6.038;2022-07-11T08:13:38;8.57;;;2.92;;
40967;SDS011;57377;45.130;6.038;2022-07-11T08:16:04;7.55;;;2.78;;
40967;SDS011;57377;45.130;6.038;2022-07-11T08:18:30;4.22;;;2.75;;
40967;SDS011;57377;45.130;6.038;2022-07-11T08:20:56;5.28;;;2.88;;
40967;SDS011;57377;45.130;6.038;2022-07-11T08:23:21;5.13;;;3.28;;
40967;SDS011;57377;45.130;6.038;2022-07-11T08:25:47;7.47;;;3.25;;
40967;SDS011;57377;45.130;6.038;2022-07-11T08:28:14;3.88;;;2.97;;
40967;SDS011;57377;45.130;6.038;2022-07-11T08:30:39;5.82;;;2.47;;
40967;SDS011;57377;45.130;6.038;2022-07-11T08:33:04;10.02;;;3.00;;
40967;SDS011;57377;45.130;6.038;2022-07-11T08:35:30;8.65;;;2.90;;
40967;SDS011;57377;45.130;6.038;2022-07-11T08:37:56;5.38;;;3.13;;
40967;SDS011;57377;45.130;6.038;2022-07-11T08:40:21;5.82;;;3.10;;
40967;SDS011;57377;45.130;6.038;2022-07-11T08:42:47;7.60;;;3.40;;
40967;SDS011;57377;45.130;6.038;2022-07-11T08:45:13;6.32;;;2.85;;
40967;SDS011;57377;45.130;6.038;2022-07-11T08:47:40;4.78;;;2.58;;
40967;SDS011;57377;45.130;6.038;2022-07-11T08:50:06;5.47;;;2.85;;
40967;SDS011;57377;45.130;6.038;2022-07-11T08:52:32;10.50;;;3.00;;
40967;SDS011;57377;45.130;6.038;2022-07-11T08:54:58;5.55;;;2.75;;
40967;SDS011;57377;45.130;6.038;2022-07-11T08:57:24;4.22;;;2.65;;
40967;SDS011;57377;45.130;6.038;2022-07-11T08:59:54;4.50;;;2.55;;
40967;SDS011;57377;45.130;6.038;2022-07-11T09:02:22;9.32;;;3.10;;
40967;SDS011;57377;45.130;6.038;2022-07-11T09:04:49;6.55;;;3.17;;
40967;SDS011;57377;45.130;6.038;2022-07-11T09:07:14;3.92;;;2.78;;
40967;SDS011;57377;45.130;6.038;2022-07-11T09:09:40;87.93;;;7.93;;
40967;SDS011;57377;45.130;6.038;2022-07-11T09:12:12;4.70;;;3.28;;
40967;SDS011;57377;45.130;6.038;2022-07-11T09:14:44;5.90;;;3.22;;
40967;SDS011;57377;45.130;6.038;2022-07-11T09:17:11;6.43;;;3.28;;
40967;SDS011;57377;45.130;6.038;2022-07-11T09:19:37;15.18;;;3.38;;
40967;SDS011;57377;45.130;6.038;2022-07-11T09:25:01;7.63;;;3.15;;
40967;SDS011;57377;45.130;6.038;2022-07-11T09:27:54;6.07;;;2.63;;
40967;SDS011;57377;45.130;6.038;2022-07-11T09:30:25;5.57;;;2.88;;
40967;SDS011;57377;45.130;6.038;2022-07-11T09:32:57;7.72;;;3.60;;
40967;SDS011;57377;45.130;6.038;2022-07-11T09:37:48;3.92;;;2.95;;
40967;SDS011;57377;45.130;6.038;2022-07-11T09:40:15;7.25;;;3.85;;
40967;SDS011;57377;45.130;6.038;2022-07-11T09:42:45;8.95;;;3.45;;
40967;SDS011;57377;45.130;6.038;2022-07-11T09:45:12;4.70;;;3.20;;
40967;SDS011;57377;45.130;6.038;2022-07-11T09:47:44;4.00;;;2.72;;
40967;SDS011;57377;45.130;6.038;2022-07-11T09:50:21;7.28;;;2.85;;
40967;SDS011;57377;45.130;6.038;2022-07-11T09:52:57;5.78;;;2.92;;
40967;SDS011;57377;45.130;6.038;2022-07-11T09:55:24;3.67;;;2.60;;
40967;SDS011;57377;45.130;6.038;2022-07-11T09:57:50;7.75;;;2.70;;
40967;SDS011;57377;45.130;6.038;2022-07-11T10:00:16;6.03;;;2.60;;
40967;SDS011;57377;45.130;6.038;2022-07-11T10:02:41;8.02;;;2.72;;
40967;SDS011;57377;45.130;6.038;2022-07-11T10:05:07;4.78;;;2.55;;
40967;SDS011;57377;45.130;6.038;2022-07-11T10:07:33;5.28;;;3.05;;
40967;SDS011;57377;45.130;6.038;2022-07-11T10:09:59;8.05;;;2.90;;
40967;SDS011;57377;45.130;6.038;2022-07-11T10:12:25;6.75;;;2.80;;
40967;SDS011;57377;45.130;6.038;2022-07-11T10:14:52;2.60;;;2.25;;
40967;SDS011;57377;45.130;6.038;2022-07-11T10:17:26;6.00;;;2.40;;
40967;SDS011;57377;45.130;6.038;2022-07-11T10:20:06;5.75;;;2.53;;
40967;SDS011;57377;45.130;6.038;2022-07-11T10:28:07;2.80;;;2.15;;
40967;SDS011;57377;45.130;6.038;2022-07-11T10:30:48;8.52;;;2.70;;
40967;SDS011;57377;45.130;6.038;2022-07-11T10:33:16;8.82;;;2.92;;
40967;SDS011;57377;45.130;6.038;2022-07-11T10:35:46;4.78;;;2.63;;
40967;SDS011;57377;45.130;6.038;2022-07-11T10:38:15;4.05;;;2.20;;
40967;SDS011;57377;45.130;6.038;2022-07-11T10:40:48;4.47;;;2.40;;
40967;SDS011;57377;45.130;6.038;2022-07-11T10:48:21;3.85;;;2.40;;
40967;SDS011;57377;45.130;6.038;2022-07-11T10:50:47;3.87;;;2.33;;
40967;SDS011;57377;45.130;6.038;2022-07-11T10:53:40;7.18;;;2.50;;
40967;SDS011;57377;45.130;6.038;2022-07-11T10:59:11;6.15;;;2.90;;
40967;SDS011;57377;45.130;6.038;2022-07-11T11:02:00;6.20;;;3.28;;
40967;SDS011;57377;45.130;6.038;2022-07-11T11:04:45;7.82;;;2.40;;
40967;SDS011;57377;45.130;6.038;2022-07-11T11:10:02;6.95;;;2.80;;
40967;SDS011;57377;45.130;6.038;2022-07-11T11:15:33;9.32;;;2.30;;
40967;SDS011;57377;45.130;6.038;2022-07-11T11:28:29;3.67;;;2.40;;
40967;SDS011;57377;45.130;6.038;2022-07-11T11:31:05;6.78;;;2.30;;
40967;SDS011;57377;45.130;6.038;2022-07-11T11:33:35;5.75;;;2.15;;
40967;SDS011;57377;45.130;6.038;2022-07-11T11:36:05;6.47;;;2.45;;
40967;SDS011;57377;45.130;6.038;2022-07-11T11:38:33;6.55;;;2.13;;
40967;SDS011;57377;45.130;6.038;2022-07-11T11:41:06;3.67;;;1.85;;
40967;SDS011;57377;45.130;6.038;2022-07-11T11:43:34;3.88;;;2.10;;
40967;SDS011;57377;45.130;6.038;2022-07-11T11:46:01;4.07;;;1.98;;
40967;SDS011;57377;45.130;6.038;2022-07-11T11:48:33;2.70;;;2.10;;
40967;SDS011;57377;45.130;6.038;2022-07-11T11:53:41;5.15;;;2.45;;
40967;SDS011;57377;45.130;6.038;2022-07-11T11:58:47;6.80;;;2.45;;
40967;SDS011;57377;45.130;6.038;2022-07-11T12:01:14;6.00;;;2.20;;
40967;SDS011;57377;45.130;6.038;2022-07-11T12:03:49;5.47;;;2.10;;
40967;SDS011;57377;45.130;6.038;2022-07-11T12:06:16;9.48;;;2.28;;
40967;SDS011;57377;45.130;6.038;2022-07-11T12:08:45;7.85;;;2.50;;
40967;SDS011;57377;45.130;6.038;2022-07-11T12:11:14;4.85;;;2.17;;
40967;SDS011;57377;45.130;6.038;2022-07-11T12:13:40;3.28;;;2.30;;
40967;SDS011;57377;45.130;6.038;2022-07-11T12:16:13;4.75;;;2.38;;
40967;SDS011;57377;45.130;6.038;2022-07-11T12:18:58;7.63;;;2.10;;
40967;SDS011;57377;45.130;6.038;2022-07-11T12:21:25;8.32;;;2.38;;
40967;SDS011;57377;45.130;6.038;2022-07-11T12:23:50;5.03;;;2.22;;
40967;SDS011;57377;45.130;6.038;2022-07-11T12:26:16;7.43;;;1.98;;
40967;SDS011;57377;45.130;6.038;2022-07-11T12:31:54;4.22;;;2.03;;
40967;SDS011;57377;45.130;6.038;2022-07-11T12:34:25;5.18;;;2.30;;
40967;SDS011;57377;45.130;6.038;2022-07-11T12:37:10;3.85;;;2.30;;
40967;SDS011;57377;45.130;6.038;2022-07-11T12:39:51;3.42;;;2.25;;
40967;SDS011;57377;45.130;6.038;2022-07-11T12:42:22;5.90;;;2.40;;
40967;SDS011;57377;45.130;6.038;2022-07-11T12:45:00;5.05;;;2.08;;
40967;SDS011;57377;45.130;6.038;2022-07-11T12:50:06;4.28;;;2.10;;
40967;SDS011;57377;45.130;6.038;2022-07-11T12:52:40;9.02;;;2.40;;
40967;SDS011;57377;45.130;6.038;2022-07-11T12:55:07;3.75;;;1.80;;
40967;SDS011;57377;45.130;6.038;2022-07-11T12:57:36;8.20;;;2.22;;
40967;SDS011;57377;45.130;6.038;2022-07-11T13:00:10;8.43;;;2.05;;
40967;SDS011;57377;45.130;6.038;2022-07-11T13:02:47;2.70;;;2.20;;
40967;SDS011;57377;45.130;6.038;2022-07-11T13:05:14;7.72;;;2.22;;
40967;SDS011;57377;45.130;6.038;2022-07-11T13:07:40;6.65;;;2.45;;
40967;SDS011;57377;45.130;6.038;2022-07-11T13:10:25;5.97;;;2.42;;
40967;SDS011;57377;45.130;6.038;2022-07-11T13:12:54;5.78;;;2.22;;
40967;SDS011;57377;45.130;6.038;2022-07-11T13:15:20;4.60;;;2.72;;
40967;SDS011;57377;45.130;6.038;2022-07-11T13:20:15;4.83;;;2.17;;
40967;SDS011;57377;45.130;6.038;2022-07-11T13:22:43;11.70;;;2.75;;
40967;SDS011;57377;45.130;6.038;2022-07-11T13:25:09;5.70;;;1.55;;
40967;SDS011;57377;45.130;6.038;2022-07-11T13:27:37;4.43;;;2.22;;
40967;SDS011;57377;45.130;6.038;2022-07-11T13:30:04;3.08;;;1.70;;
40967;SDS011;57377;45.130;6.038;2022-07-11T13:32:36;4.70;;;2.00;;
40967;SDS011;57377;45.130;6.038;2022-07-11T13:35:02;5.63;;;2.38;;
40967;SDS011;57377;45.130;6.038;2022-07-11T13:37:28;3.83;;;2.00;;
40967;SDS011;57377;45.130;6.038;2022-07-11T13:39:53;5.55;;;2.65;;
40967;SDS011;57377;45.130;6.038;2022-07-11T13:42:19;3.95;;;2.13;;
40967;SDS011;57377;45.130;6.038;2022-07-11T13:44:44;4.85;;;1.92;;
40967;SDS011;57377;45.130;6.038;2022-07-11T13:47:09;15.57;;;2.15;;
40967;SDS011;57377;45.130;6.038;2022-07-11T13:52:02;5.55;;;2.05;;
40967;SDS011;57377;45.130;6.038;2022-07-11T13:54:27;8.38;;;1.90;;
40967;SDS011;57377;45.130;6.038;2022-07-11T13:56:53;4.75;;;2.28;;
40967;SDS011;57377;45.130;6.038;2022-07-11T13:59:18;5.05;;;1.60;;
40967;SDS011;57377;45.130;6.038;2022-07-11T14:01:45;2.10;;;1.83;;
40967;SDS011;57377;45.130;6.038;2022-07-11T14:04:10;11.48;;;2.15;;
40967;SDS011;57377;45.130;6.038;2022-07-11T14:06:36;6.97;;;2.10;;
40967;SDS011;57377;45.130;6.038;2022-07-11T14:09:02;5.75;;;1.80;;
40967;SDS011;57377;45.130;6.038;2022-07-11T14:11:27;12.40;;;2.53;;
40967;SDS011;57377;45.130;6.038;2022-07-11T14:13:53;5.28;;;2.13;;
40967;SDS011;57377;45.130;6.038;2022-07-11T14:16:18;12.05;;;2.35;;
40967;SDS011;57377;45.130;6.038;2022-07-11T14:18:44;4.60;;;1.80;;
40967;SDS011;57377;45.130;6.038;2022-07-11T14:21:10;6.18;;;2.05;;
40967;SDS011;57377;45.130;6.038;2022-07-11T14:23:35;8.10;;;2.03;;
40967;SDS011;57377;45.130;6.038;2022-07-11T14:26:00;5.75;;;1.73;;
40967;SDS011;57377;45.130;6.038;2022-07-11T14:28:26;4.35;;;2.00;;
40967;SDS011;57377;45.130;6.038;2022-07-11T14:30:52;5.50;;;1.88;;
40967;SDS011;57377;45.130;6.038;2022-07-11T14:33:17;4.20;;;1.90;;
40967;SDS011;57377;45.130;6.038;2022-07-11T14:35:42;6.70;;;2.13;;
40967;SDS011;57377;45.130;6.038;2022-07-11T14:38:08;4.25;;;2.40;;
40967;SDS011;57377;45.130;6.038;2022-07-11T14:40:33;7.13;;;2.03;;
40967;SDS011;57377;45.130;6.038;2022-07-11T14:42:59;3.55;;;2.10;;
40967;SDS011;57377;45.130;6.038;2022-07-11T14:45:24;5.53;;;2.28;;
40967;SDS011;57377;45.130;6.038;2022-07-11T14:47:49;4.63;;;2.15;;
40967;SDS011;57377;45.130;6.038;2022-07-11T14:50:15;6.32;;;2.47;;
40967;SDS011;57377;45.130;6.038;2022-07-11T14:52:41;9.38;;;2.10;;
40967;SDS011;57377;45.130;6.038;2022-07-11T14:55:06;6.32;;;2.67;;
40967;SDS011;57377;45.130;6.038;2022-07-11T14:57:32;3.07;;;1.83;;
40967;SDS011;57377;45.130;6.038;2022-07-11T14:59:58;11.75;;;2.28;;
40967;SDS011;57377;45.130;6.038;2022-07-11T15:02:23;2.92;;;2.00;;
40967;SDS011;57377;45.130;6.038;2022-07-11T15:05:08;8.68;;;2.30;;
40967;SDS011;57377;45.130;6.038;2022-07-11T15:07:33;6.55;;;2.05;;
40967;SDS011;57377;45.130;6.038;2022-07-11T15:10:17;6.65;;;2.33;;
40967;SDS011;57377;45.130;6.038;2022-07-11T15:13:02;2.78;;;1.75;;
40967;SDS011;57377;45.130;6.038;2022-07-11T15:15:27;4.45;;;1.88;;
40967;SDS011;57377;45.130;6.038;2022-07-11T15:17:54;4.30;;;1.77;;
40967;SDS011;57377;45.130;6.038;2022-07-11T15:20:20;4.60;;;2.20;;
40967;SDS011;57377;45.130;6.038;2022-07-11T15:22:45;5.57;;;1.90;;
40967;SDS011;57377;45.130;6.038;2022-07-11T15:25:11;4.20;;;2.53;;
40967;SDS011;57377;45.130;6.038;2022-07-11T15:27:36;5.13;;;2.60;;
40967;SDS011;57377;45.130;6.038;2022-07-11T15:30:02;4.30;;;2.10;;
40967;SDS011;57377;45.130;6.038;2022-07-11T15:34:55;3.38;;;1.80;;
40967;SDS011;57377;45.130;6.038;2022-07-11T15:37:20;2.88;;;2.03;;
40967;SDS011;57377;45.130;6.038;2022-07-11T15:39:46;5.93;;;2.50;;
40967;SDS011;57377;45.130;6.038;2022-07-11T15:42:11;13.70;;;2.47;;